Time;durP1;ratioP1;P1;durP2;ratioP2;P2;SDS_P1;SDS_P2;PMS_P1;PMS_P2;Temp;Humidity;BMP_temperature;BMP_pressure;BME280_temperature;BME280_humidity;BME280_pressure;Samples;Min_cycle;Max_cycle;Signal;HPM_P1;HPM_P2
2024/04/11 00:00:12;;;;;;;15.95;10.00;;;16.30;96.40;;;;;;5454928;26;19999;-85
2024/04/11 00:02:38;;;;;;;14.52;10.10;;;16.40;96.40;;;;;;5455170;26;19999;-85
2024/04/11 00:05:05;;;;;;;18.83;9.95;;;16.40;96.30;;;;;;5421684;26;20122;-83
2024/04/11 00:07:30;;;;;;;11.80;9.98;;;16.40;96.30;;;;;;5453486;26;20003;-84
2024/04/11 00:09:56;;;;;;;15.57;9.70;;;16.40;96.20;;;;;;5453543;26;20007;-83
2024/04/11 00:12:22;;;;;;;16.73;10.80;;;16.40;96.20;;;;;;5415849;26;20047;-84
2024/04/11 00:14:49;;;;;;;17.00;10.10;;;16.40;96.10;;;;;;5453882;26;20006;-84
2024/04/11 00:17:16;;;;;;;15.35;10.63;;;16.50;96.10;;;;;;5454486;26;20119;-84
2024/04/11 00:19:42;;;;;;;16.27;10.68;;;16.40;96.10;;;;;;5458848;26;20007;-83
2024/04/11 00:22:10;;;;;;;18.30;10.50;;;16.40;96.10;;;;;;5469512;26;20354;-82
2024/04/11 00:24:37;;;;;;;19.13;11.93;;;16.40;96.00;;;;;;5453064;26;20015;-84
2024/04/11 00:27:03;;;;;;;15.45;11.73;;;16.40;96.00;;;;;;5452986;26;20002;-84
2024/04/11 00:29:29;;;;;;;15.85;10.30;;;16.40;96.00;;;;;;5421243;26;19999;-85
2024/04/11 00:31:55;;;;;;;15.77;10.90;;;16.40;96.00;;;;;;5452741;26;20343;-83
2024/04/11 00:34:31;;;;;;;23.48;12.02;;;16.40;96.10;;;;;;5452971;26;20003;-83
2024/04/11 00:36:59;;;;;;;18.10;10.55;;;16.30;96.10;;;;;;5422598;26;20075;-83
2024/04/11 00:39:25;;;;;;;19.17;10.80;;;16.30;96.10;;;;;;5462896;26;19999;-84
2024/04/11 00:41:52;;;;;;;17.33;11.35;;;16.30;96.10;;;;;;5453021;26;20010;-83
2024/04/11 00:44:18;;;;;;;16.55;9.77;;;16.30;96.20;;;;;;5452900;26;20011;-84
2024/04/11 00:46:52;;;;;;;20.58;10.82;;;16.20;96.10;;;;;;5456099;26;20046;-85
2024/04/11 00:49:20;;;;;;;22.52;11.68;;;16.20;96.20;;;;;;5463601;26;20013;-86
2024/04/11 00:51:47;;;;;;;14.48;11.05;;;16.20;96.20;;;;;;5452991;26;20010;-85
2024/04/11 00:54:15;;;;;;;21.53;10.83;;;16.20;96.20;;;;;;5452628;26;20003;-82
2024/04/11 00:56:43;;;;;;;15.98;10.68;;;16.20;96.10;;;;;;5452551;26;19999;-84
2024/04/11 00:59:10;;;;;;;16.52;11.05;;;16.20;96.00;;;;;;5441570;26;20109;-83
2024/04/11 01:01:36;;;;;;;14.10;11.48;;;16.20;95.80;;;;;;5438789;26;20397;-83
2024/04/11 01:04:06;;;;;;;14.52;10.10;;;16.30;95.70;;;;;;5452626;26;20017;-84
2024/04/11 01:09:33;;;;;;;21.83;11.88;;;16.40;95.60;;;;;;5429892;26;20017;-83
2024/04/11 01:11:59;;;;;;;15.75;11.07;;;16.30;95.70;;;;;;5420784;26;20003;-82
2024/04/11 01:14:25;;;;;;;16.88;11.02;;;16.20;95.70;;;;;;5452112;26;19999;-85
2024/04/11 01:16:51;;;;;;;18.52;11.23;;;16.20;95.70;;;;;;5421054;26;20015;-83
2024/04/11 01:19:16;;;;;;;14.30;10.25;;;16.10;95.80;;;;;;5453121;26;19999;-84
2024/04/11 01:21:42;;;;;;;23.83;11.10;;;16.00;95.90;;;;;;5452805;26;20013;-85
2024/04/11 01:24:08;;;;;;;20.50;11.70;;;16.10;95.90;;;;;;5455329;26;20013;-84
2024/04/11 01:26:37;;;;;;;13.70;11.13;;;16.10;95.80;;;;;;5456466;26;20017;-85
2024/04/11 01:29:03;;;;;;;20.10;11.98;;;16.10;95.80;;;;;;5458300;26;20015;-85
2024/04/11 01:31:28;;;;;;;18.92;11.68;;;16.10;95.70;;;;;;5460531;26;19999;-83
2024/04/11 01:33:54;;;;;;;22.55;10.50;;;16.10;95.80;;;;;;5425185;26;20022;-84
2024/04/11 01:36:20;;;;;;;15.80;10.43;;;16.00;95.90;;;;;;5422769;26;20018;-85
2024/04/11 01:38:46;;;;;;;21.63;11.68;;;16.00;95.80;;;;;;5421405;26;19999;-86
2024/04/11 01:41:12;;;;;;;16.42;11.07;;;16.00;95.80;;;;;;5415147;26;20017;-85
2024/04/11 01:43:38;;;;;;;19.77;11.00;;;16.00;95.50;;;;;;5402162;26;20000;-82
2024/04/11 01:46:04;;;;;;;13.60;10.00;;;16.00;95.40;;;;;;5416842;26;20011;-84
2024/04/11 01:48:30;;;;;;;21.80;9.68;;;16.00;95.30;;;;;;5416049;26;20000;-83
2024/04/11 01:50:57;;;;;;;13.75;9.55;;;16.10;95.10;;;;;;5416192;26;20011;-84
2024/04/11 01:53:23;;;;;;;14.20;9.57;;;16.20;94.80;;;;;;5420502;26;20036;-84
2024/04/11 01:55:49;;;;;;;17.63;9.63;;;16.20;94.60;;;;;;5423667;26;20014;-85
2024/04/11 01:58:17;;;;;;;13.77;10.18;;;16.20;94.40;;;;;;5411834;26;19996;-85
2024/04/11 02:00:44;;;;;;;19.40;10.80;;;16.20;94.30;;;;;;5413842;26;20054;-83
2024/04/11 02:03:10;;;;;;;14.73;10.38;;;16.10;94.30;;;;;;5411824;26;20011;-84
2024/04/11 02:05:36;;;;;;;17.02;10.00;;;16.20;94.20;;;;;;5416443;26;20049;-85
2024/04/11 02:08:02;;;;;;;15.10;9.85;;;16.20;94.00;;;;;;5416992;26;20004;-83
2024/04/11 02:10:32;;;;;;;14.75;9.23;;;16.20;93.90;;;;;;5417382;26;20017;-83
2024/04/11 02:12:58;;;;;;;14.30;9.60;;;16.20;93.80;;;;;;5418438;26;20003;-83
2024/04/11 02:15:25;;;;;;;15.75;10.55;;;16.20;93.80;;;;;;5416648;26;20004;-84
2024/04/11 02:17:50;;;;;;;15.70;9.38;;;16.10;93.70;;;;;;5414059;26;19996;-82
2024/04/11 02:20:16;;;;;;;17.17;9.85;;;16.10;93.70;;;;;;5415472;26;20015;-84
2024/04/11 02:22:46;;;;;;;17.85;9.98;;;16.10;93.60;;;;;;5418767;26;20007;-84
2024/04/11 02:25:13;;;;;;;16.35;10.25;;;16.10;93.50;;;;;;5416863;26;20011;-84
2024/04/11 02:27:40;;;;;;;14.07;9.30;;;16.10;93.50;;;;;;5403877;26;20002;-84
2024/04/11 02:30:09;;;;;;;17.80;9.98;;;16.10;93.40;;;;;;5408960;26;19996;-84
2024/04/11 02:32:41;;;;;;;17.02;9.45;;;16.10;93.30;;;;;;5408759;26;20003;-83
2024/04/11 02:35:11;;;;;;;16.23;9.75;;;16.10;93.30;;;;;;5455108;26;19995;-84
2024/04/11 02:37:40;;;;;;;14.10;9.35;;;16.10;93.30;;;;;;5455200;26;20003;-84
2024/04/11 02:40:09;;;;;;;16.63;9.50;;;16.10;93.10;;;;;;5454416;26;20084;-84
2024/04/11 02:42:38;;;;;;;13.73;9.27;;;16.10;93.00;;;;;;5422760;26;20083;-84
2024/04/11 02:45:07;;;;;;;12.60;8.93;;;16.10;92.90;;;;;;5421010;26;19995;-84
2024/04/11 02:47:36;;;;;;;16.95;10.77;;;16.10;92.80;;;;;;5421809;26;20018;-85
2024/04/11 02:50:02;;;;;;;17.88;9.25;;;16.20;92.70;;;;;;5423279;26;20031;-85
2024/04/11 02:52:28;;;;;;;18.77;9.18;;;16.20;92.60;;;;;;5423230;26;20046;-84
2024/04/11 02:54:54;;;;;;;15.98;9.63;;;16.20;92.50;;;;;;5422647;26;20466;-82
2024/04/11 02:57:21;;;;;;;13.73;9.70;;;16.20;92.30;;;;;;5454335;26;20455;-83
2024/04/11 02:59:51;;;;;;;11.90;8.67;;;16.30;92.30;;;;;;5455134;26;20011;-84
2024/04/11 03:02:17;;;;;;;24.13;9.80;;;16.20;92.20;;;;;;5454572;26;19999;-84
2024/04/11 03:04:43;;;;;;;17.23;9.82;;;16.30;92.20;;;;;;5455362;26;20013;-84
2024/04/11 03:07:09;;;;;;;12.30;8.63;;;16.30;92.00;;;;;;5446092;26;20397;-83
2024/04/11 03:09:35;;;;;;;11.63;8.93;;;16.40;91.90;;;;;;5461129;26;20076;-83
2024/04/11 03:12:01;;;;;;;10.05;8.75;;;16.40;91.70;;;;;;5457210;26;20014;-84
2024/04/11 03:14:27;;;;;;;14.95;9.15;;;16.40;91.60;;;;;;5454986;26;20026;-85
2024/04/11 03:16:53;;;;;;;13.52;8.98;;;16.50;91.50;;;;;;5454518;26;20335;-84
2024/04/11 03:19:19;;;;;;;11.75;8.02;;;16.50;91.30;;;;;;5454139;26;20001;-84
2024/04/11 03:21:45;;;;;;;14.50;9.48;;;16.60;91.00;;;;;;5451956;26;19995;-83
2024/04/11 03:24:12;;;;;;;13.30;8.55;;;16.70;91.00;;;;;;5451015;26;20003;-85
2024/04/11 03:26:40;;;;;;;16.37;8.37;;;16.70;90.90;;;;;;5451347;26;20873;-84
2024/04/11 03:29:05;;;;;;;20.83;9.95;;;16.80;90.70;;;;;;5400333;26;20230;-83
2024/04/11 03:31:32;;;;;;;12.80;8.55;;;16.80;90.70;;;;;;5431090;26;19999;-84
2024/04/11 03:33:59;;;;;;;15.07;8.40;;;16.90;90.70;;;;;;5453364;26;20602;-85
2024/04/11 03:36:25;;;;;;;13.98;8.48;;;16.90;90.40;;;;;;5418339;26;20019;-85
2024/04/11 03:38:54;;;;;;;11.75;7.53;;;17.00;90.20;;;;;;5453991;26;20013;-86
2024/04/11 03:41:20;;;;;;;14.70;9.05;;;17.00;89.70;;;;;;5421830;26;20380;-84
2024/04/11 03:43:53;;;;;;;16.33;8.07;;;17.10;89.70;;;;;;5454282;26;20104;-85
2024/04/11 03:46:21;;;;;;;15.13;7.63;;;17.10;89.10;;;;;;5452719;26;20389;-84
2024/04/11 03:48:56;;;;;;;13.27;7.82;;;17.10;88.70;;;;;;5454671;26;20010;-84
2024/04/11 03:51:24;;;;;;;15.00;7.85;;;17.10;88.50;;;;;;5422873;26;20002;-84
2024/04/11 03:53:53;;;;;;;13.32;8.23;;;17.10;88.30;;;;;;5454267;26;20081;-84
2024/04/11 03:56:21;;;;;;;12.40;7.75;;;17.20;88.10;;;;;;5454536;26;20042;-85
2024/04/11 03:58:47;;;;;;;11.77;7.93;;;17.20;87.50;;;;;;5422136;26;20023;-86
2024/04/11 04:01:14;;;;;;;13.43;8.68;;;17.20;87.20;;;;;;5454655;26;20504;-85
2024/04/11 04:03:47;;;;;;;13.30;7.53;;;17.20;87.20;;;;;;5401751;26;20068;-86
2024/04/11 04:06:13;;;;;;;14.60;7.90;;;17.30;86.50;;;;;;5453614;26;20006;-87
2024/04/11 04:08:46;;;;;;;12.65;7.38;;;17.40;85.90;;;;;;5453652;26;20459;-85
2024/04/11 04:11:14;;;;;;;12.10;6.85;;;17.50;85.40;;;;;;5453087;26;20056;-84
2024/04/11 04:13:43;;;;;;;12.15;7.85;;;17.60;84.70;;;;;;5453694;26;20002;-85
2024/04/11 04:16:10;;;;;;;13.48;8.05;;;17.70;84.30;;;;;;5456399;26;20002;-87
2024/04/11 04:18:45;;;;;;;11.32;7.07;;;17.80;83.60;;;;;;5450774;26;20007;-85
2024/04/11 04:21:13;;;;;;;13.85;7.53;;;17.90;83.30;;;;;;5418190;26;20467;-84
2024/04/11 04:23:43;;;;;;;11.98;6.80;;;18.00;82.80;;;;;;5455020;26;20007;-85
2024/04/11 04:26:10;;;;;;;10.10;7.07;;;18.10;82.50;;;;;;5463790;26;20003;-84
2024/04/11 04:28:38;;;;;;;16.27;7.38;;;18.20;81.80;;;;;;5443220;26;20110;-84
2024/04/11 04:31:20;;;;;;;18.17;7.38;;;18.40;81.40;;;;;;5415073;26;19999;-84
2024/04/11 04:33:49;;;;;;;10.55;7.28;;;18.60;80.40;;;;;;5423105;26;20435;-83
2024/04/11 04:36:39;;;;;;;11.10;7.07;;;18.60;79.70;;;;;;5418446;26;20243;-84
2024/04/11 04:39:06;;;;;;;14.57;7.07;;;18.70;79.30;;;;;;5434500;26;20011;-84
2024/04/11 04:41:32;;;;;;;12.30;6.87;;;18.80;79.00;;;;;;5465964;26;19990;-83
2024/04/11 04:44:02;;;;;;;21.88;7.68;;;19.00;78.60;;;;;;5438541;26;20487;-82
2024/04/11 04:46:32;;;;;;;14.77;7.38;;;19.30;78.50;;;;;;5455280;26;20002;-85
2024/04/11 04:49:02;;;;;;;10.85;6.70;;;19.50;76.20;;;;;;5443223;26;20088;-85
2024/04/11 04:51:29;;;;;;;13.13;8.30;;;19.70;75.60;;;;;;5461687;26;20006;-84
2024/04/11 04:54:02;;;;;;;11.63;7.50;;;19.80;74.90;;;;;;5455221;26;20010;-84
2024/04/11 04:56:29;;;;;;;9.57;6.53;;;19.80;74.90;;;;;;5422266;26;19999;-84
2024/04/11 04:59:00;;;;;;;14.77;6.57;;;19.80;73.70;;;;;;5422954;26;20076;-86
2024/04/11 05:01:26;;;;;;;13.02;6.95;;;19.80;74.10;;;;;;5452101;26;20049;-86
2024/04/11 05:03:53;;;;;;;17.85;7.20;;;19.90;73.80;;;;;;5450648;26;20071;-84
2024/04/11 05:06:19;;;;;;;15.30;7.73;;;19.80;73.30;;;;;;5452835;26;20015;-85
2024/04/11 05:08:53;;;;;;;14.32;6.95;;;19.80;73.70;;;;;;5453010;26;20056;-85
2024/04/11 05:11:21;;;;;;;13.35;7.88;;;19.80;73.20;;;;;;5414976;26;20004;-85
2024/04/11 05:13:49;;;;;;;15.85;7.25;;;19.70;73.00;;;;;;5442916;26;20010;-84
2024/04/11 05:16:19;;;;;;;10.48;7.45;;;19.60;73.50;;;;;;5452063;26;20013;-84
2024/04/11 05:18:53;;;;;;;14.30;7.55;;;19.50;73.40;;;;;;5448499;26;20003;-85
2024/04/11 05:21:23;;;;;;;12.63;7.32;;;19.40;73.80;;;;;;5452099;26;20418;-86
2024/04/11 05:23:55;;;;;;;16.83;7.88;;;19.30;73.40;;;;;;5452613;26;20013;-85
2024/04/11 05:26:24;;;;;;;14.00;7.90;;;19.30;73.90;;;;;;5420617;26;20013;-84
2024/04/11 05:28:51;;;;;;;21.08;7.93;;;19.20;74.00;;;;;;5416853;26;20003;-85
2024/04/11 05:31:26;;;;;;;;;;;19.20;74.00;;;;;;5425879;26;20324;-85
2024/04/11 05:34:26;;;;;;;16.30;7.85;;;19.20;74.30;;;;;;5420391;26;20338;-86
2024/04/11 05:37:12;;;;;;;12.35;6.70;;;19.30;74.20;;;;;;5418268;26;19999;-85
2024/04/11 05:39:44;;;;;;;16.38;7.07;;;19.30;73.70;;;;;;5419493;26;20062;-85
2024/04/11 05:42:23;;;;;;;;;;;;;;;;;;;;;
2024/04/11 05:44:49;;;;;;;9.27;7.43;;;19.40;73.00;;;;;;5415201;26;20011;-84
2024/04/11 05:47:19;;;;;;;12.98;7.43;;;19.60;72.40;;;;;;5396158;26;19996;-84
2024/04/11 05:49:48;;;;;;;12.02;6.35;;;19.70;72.30;;;;;;5417096;26;20052;-87
2024/04/11 05:52:24;;;;;;;9.90;6.50;;;19.90;71.30;;;;;;5418396;26;20000;-86
2024/04/11 05:54:52;;;;;;;16.63;7.35;;;20.10;71.30;;;;;;5419287;26;20472;-88
2024/04/11 05:57:42;;;;;;;10.40;6.47;;;20.70;70.00;;;;;;5419617;26;20012;-87
2024/04/11 06:00:08;;;;;;;12.82;6.70;;;21.20;68.20;;;;;;5418528;26;20365;-86
2024/04/11 06:03:08;;;;;;;14.88;6.68;;;21.00;67.90;;;;;;5403700;26;20011;-87
2024/04/11 06:05:57;;;;;;;11.57;6.55;;;21.10;67.80;;;;;;5404296;26;20019;-85
2024/04/11 06:08:26;;;;;;;12.38;7.30;;;21.30;67.20;;;;;;5388264;26;20007;-80
2024/04/11 06:11:06;;;;;;;18.67;6.55;;;21.50;66.40;;;;;;5418059;26;19999;-82
2024/04/11 06:13:38;;;;;;;10.38;6.70;;;21.80;65.90;;;;;;5415581;26;20358;-84
2024/04/11 06:16:05;;;;;;;13.50;5.97;;;22.00;65.60;;;;;;5419603;26;20097;-83
2024/04/11 06:18:36;;;;;;;;;;;22.00;64.40;;;;;;5420386;26;20003;-84
2024/04/11 06:21:19;;;;;;;14.82;6.75;;;21.70;65.50;;;;;;5419733;26;19931;-86
2024/04/11 06:23:54;;;;;;;9.05;6.45;;;21.70;65.40;;;;;;5418215;26;20018;-84
2024/04/11 06:26:20;;;;;;;11.40;6.47;;;22.00;64.90;;;;;;5418302;26;20000;-85
2024/04/11 06:28:46;;;;;;;10.20;6.57;;;22.10;64.20;;;;;;5418208;26;20517;-83
2024/04/11 06:31:14;;;;;;;18.65;7.35;;;22.20;64.50;;;;;;5418418;26;20015;-85
2024/04/11 06:33:40;;;;;;;12.40;6.55;;;22.20;64.30;;;;;;5439129;26;20056;-85
2024/04/11 06:36:07;;;;;;;12.40;6.55;;;22.50;63.70;;;;;;5422412;26;20118;-84
2024/04/11 06:38:34;;;;;;;8.65;6.20;;;22.80;63.10;;;;;;5454527;26;19999;-83
2024/04/11 06:41:00;;;;;;;11.27;5.88;;;23.10;62.30;;;;;;5453992;26;19999;-85
2024/04/11 06:43:26;;;;;;;9.55;5.82;;;23.30;60.50;;;;;;5444913;26;20003;-86
2024/04/11 06:45:57;;;;;;;6.80;5.53;;;23.50;60.60;;;;;;5423001;26;20003;-85
2024/04/11 06:48:23;;;;;;;8.88;5.93;;;23.70;59.10;;;;;;5454523;26;20003;-85
2024/04/11 06:50:50;;;;;;;10.67;4.97;;;24.40;57.80;;;;;;5454254;26;20080;-84
2024/04/11 06:53:17;;;;;;;11.07;4.90;;;24.70;56.10;;;;;;5457445;26;20006;-85
2024/04/11 06:55:46;;;;;;;12.48;5.38;;;24.40;55.10;;;;;;5424333;26;20018;-84
2024/04/11 06:58:17;;;;;;;11.43;4.75;;;24.10;55.40;;;;;;5455231;26;20017;-85
2024/04/11 07:00:43;;;;;;;8.50;4.88;;;23.80;54.60;;;;;;5455771;26;20072;-85
2024/04/11 07:03:25;;;;;;;8.23;4.90;;;23.40;55.20;;;;;;5459717;26;20015;-83
2024/04/11 07:06:22;;;;;;;8.65;4.35;;;22.90;55.60;;;;;;5456562;26;20052;-85
2024/04/11 07:08:49;;;;;;;8.95;4.13;;;22.90;55.10;;;;;;5446414;26;20485;-85
2024/04/11 07:11:27;;;;;;;8.40;3.60;;;22.70;53.80;;;;;;5422784;26;20003;-87
2024/04/11 07:13:58;;;;;;;12.13;4.47;;;22.70;54.30;;;;;;5454142;26;19998;-85
2024/04/11 07:16:32;;;;;;;7.50;4.25;;;22.80;54.40;;;;;;5422633;26;20013;-85
2024/04/11 07:18:59;;;;;;;8.23;3.30;;;22.90;54.10;;;;;;5455504;26;19999;-85
2024/04/11 07:21:26;;;;;;;9.00;3.80;;;23.00;54.00;;;;;;5455257;26;20013;-84
2024/04/11 07:23:58;;;;;;;8.60;3.50;;;22.60;53.60;;;;;;5454332;26;20002;-87
2024/04/11 07:26:29;;;;;;;10.95;3.95;;;22.40;53.80;;;;;;5453847;26;20488;-86
2024/04/11 07:28:56;;;;;;;11.02;3.65;;;22.60;54.00;;;;;;5454245;26;20078;-84
2024/04/11 07:31:22;;;;;;;5.07;3.58;;;23.10;53.10;;;;;;5422963;26;20409;-86
2024/04/11 07:33:48;;;;;;;11.27;3.93;;;22.90;52.70;;;;;;5454248;26;20012;-87
2024/04/11 07:36:16;;;;;;;10.55;3.60;;;22.90;53.50;;;;;;5478251;26;20010;-84
2024/04/11 07:38:43;;;;;;;7.05;3.78;;;22.70;53.40;;;;;;5454625;26;20002;-86
2024/04/11 07:41:18;;;;;;;8.20;3.97;;;22.40;54.90;;;;;;5454229;26;20003;-85
2024/04/11 07:43:49;;;;;;;11.05;4.68;;;22.50;53.90;;;;;;5417590;26;19999;-85
2024/04/11 07:46:15;;;;;;;13.73;4.40;;;23.10;53.60;;;;;;5464924;26;20002;-83
2024/04/11 07:48:47;;;;;;;8.60;3.60;;;23.60;52.50;;;;;;5428214;26;20035;-85
2024/04/11 07:51:16;;;;;;;6.50;3.03;;;23.50;51.60;;;;;;5456145;26;20003;-86
2024/04/11 07:53:46;;;;;;;9.93;3.45;;;23.20;51.90;;;;;;5454529;26;20013;-84
2024/04/11 07:56:20;;;;;;;12.02;3.30;;;23.00;51.80;;;;;;5457142;26;20023;-83
2024/04/11 07:58:49;;;;;;;9.25;3.42;;;22.80;51.30;;;;;;5467456;26;20007;-84
2024/04/11 08:01:22;;;;;;;7.15;2.88;;;23.00;51.10;;;;;;5470091;26;20029;-85
2024/04/11 08:03:49;;;;;;;5.68;2.42;;;23.80;48.40;;;;;;5456515;26;20002;-85
2024/04/11 08:06:16;;;;;;;7.82;2.30;;;23.70;47.10;;;;;;5452868;26;20071;-84
2024/04/11 08:08:42;;;;;;;5.93;2.15;;;23.80;46.50;;;;;;5452782;26;20110;-84
2024/04/11 08:11:10;;;;;;;7.97;3.03;;;24.10;46.40;;;;;;5454128;26;20031;-86
2024/04/11 08:13:38;;;;;;;9.00;2.30;;;24.50;46.00;;;;;;5456952;26;20048;-83
2024/04/11 08:16:07;;;;;;;7.05;2.20;;;25.00;44.20;;;;;;5456758;26;20075;-83
2024/04/11 08:18:33;;;;;;;6.35;2.15;;;25.30;43.80;;;;;;5452192;26;20010;-83
2024/04/11 08:20:59;;;;;;;4.87;2.00;;;25.50;44.20;;;;;;5452576;26;20401;-84
2024/04/11 08:23:25;;;;;;;6.28;2.20;;;25.20;44.10;;;;;;5452779;26;20018;-84
2024/04/11 08:25:55;;;;;;;4.00;2.03;;;25.20;44.60;;;;;;5453149;26;20075;-86
2024/04/11 08:28:21;;;;;;;6.20;2.13;;;24.80;44.50;;;;;;5452179;26;19998;-87
2024/04/11 08:30:48;;;;;;;4.78;2.20;;;24.30;45.70;;;;;;5452865;26;20011;-86
2024/04/11 08:33:42;;;;;;;4.13;2.50;;;24.00;46.50;;;;;;5453550;26;20010;-86
2024/04/11 08:39:47;;;;;;;9.10;2.45;;;22.70;49.00;;;;;;5379642;26;20000;-85
2024/04/11 08:42:13;;;;;;;4.88;2.50;;;22.20;50.40;;;;;;5379268;26;20383;-85
2024/04/11 08:44:41;;;;;;;5.05;2.83;;;21.80;50.90;;;;;;5379131;26;20000;-85
2024/04/11 08:47:07;;;;;;;3.08;2.72;;;21.40;52.40;;;;;;5378097;26;20008;-86
2024/04/11 08:49:33;;;;;;;9.05;3.22;;;21.00;54.60;;;;;;5378168;26;20066;-86
2024/04/11 08:52:01;;;;;;;5.35;2.92;;;20.70;55.80;;;;;;5377854;26;19996;-86
2024/04/11 08:54:28;;;;;;;6.20;3.00;;;20.40;56.70;;;;;;5362889;26;19997;-87
2024/04/11 08:56:54;;;;;;;;;;;20.40;57.00;;;;;;5319216;26;20001;-86
2024/04/11 08:59:24;;;;;;;9.27;3.22;;;20.40;56.60;;;;;;5378446;26;20367;-86
2024/04/11 09:01:50;;;;;;;6.18;3.60;;;20.80;56.70;;;;;;5378808;26;20008;-86
2024/04/11 09:04:17;;;;;;;7.47;3.63;;;21.10;56.40;;;;;;5343609;26;20001;-84
2024/04/11 09:06:47;;;;;;;;;;;21.40;56.00;;;;;;5366426;26;20004;-85
2024/04/11 09:09:16;;;;;;;11.77;4.13;;;21.50;56.10;;;;;;5379597;26;19949;-86
2024/04/11 09:11:44;;;;;;;12.77;4.50;;;21.70;55.50;;;;;;5378617;26;20003;-84
2024/04/11 09:14:14;;;;;;;8.68;3.58;;;21.60;55.10;;;;;;5379826;26;20014;-84
2024/04/11 09:16:43;;;;;;;3.53;2.95;;;21.40;55.40;;;;;;5453392;26;20080;-84
2024/04/11 09:19:10;;;;;;;4.43;3.03;;;21.30;54.30;;;;;;5434802;26;20007;-86
2024/04/11 09:21:45;;;;;;;5.95;3.15;;;21.20;55.20;;;;;;5453820;26;20011;-85
2024/04/11 09:24:23;;;;;;;7.07;2.22;;;20.90;56.20;;;;;;5454606;26;20027;-84
2024/04/11 09:26:49;;;;;;;5.40;3.03;;;20.90;55.30;;;;;;5444773;26;20015;-85
2024/04/11 09:29:17;;;;;;;10.07;3.58;;;21.50;54.30;;;;;;5439281;26;20014;-85
2024/04/11 09:31:43;;;;;;;5.03;2.33;;;22.20;52.50;;;;;;5452869;26;20003;-85
2024/04/11 09:34:13;;;;;;;8.27;2.75;;;22.90;49.80;;;;;;5455662;26;20003;-87
2024/04/11 09:36:43;;;;;;;4.57;2.17;;;22.90;47.90;;;;;;5455853;26;20021;-85
2024/04/11 09:39:12;;;;;;;7.80;2.67;;;22.80;46.60;;;;;;5454526;26;20034;-84
2024/04/11 09:41:40;;;;;;;12.10;2.45;;;22.80;44.50;;;;;;5467945;26;20005;-85
2024/04/11 09:44:07;;;;;;;6.03;3.40;;;22.70;45.90;;;;;;5469336;26;20038;-83
2024/04/11 09:46:41;;;;;;;5.45;2.63;;;22.60;47.70;;;;;;5459563;26;20035;-85
2024/04/11 09:49:09;;;;;;;8.75;3.10;;;22.30;48.10;;;;;;5452244;26;19998;-84
2024/04/11 09:51:37;;;;;;;9.27;2.60;;;22.30;47.50;;;;;;5451170;26;20006;-86
2024/04/11 09:54:14;;;;;;;5.82;2.05;;;22.50;46.70;;;;;;5452228;26;20014;-86
2024/04/11 09:56:46;;;;;;;3.47;2.30;;;22.40;45.80;;;;;;5452775;26;20071;-85
2024/04/11 09:59:12;;;;;;;7.68;2.28;;;22.40;46.10;;;;;;5422442;26;20003;-84
2024/04/11 10:01:38;;;;;;;6.33;2.50;;;22.30;45.10;;;;;;5454239;26;20110;-83
2024/04/11 10:04:21;;;;;;;7.22;2.80;;;22.40;45.80;;;;;;5450708;26;20002;-86
2024/04/11 10:06:52;;;;;;;6.93;2.65;;;22.60;45.90;;;;;;5453547;26;20014;-84
2024/04/11 10:09:18;;;;;;;5.65;2.90;;;22.80;45.80;;;;;;5419371;26;20027;-86
2024/04/11 10:11:51;;;;;;;5.88;2.47;;;22.70;47.30;;;;;;5413533;26;20077;-87
2024/04/11 10:14:21;;;;;;;6.82;2.67;;;22.40;48.80;;;;;;5449011;26;20336;-85
2024/04/11 10:16:55;;;;;;;7.72;2.63;;;21.90;49.80;;;;;;5451352;26;20003;-86
2024/04/11 10:19:31;;;;;;;4.45;2.15;;;21.50;50.80;;;;;;5419611;26;20082;-84
2024/04/11 10:22:05;;;;;;;3.50;2.00;;;21.60;48.80;;;;;;5451823;26;20002;-86
2024/04/11 10:24:38;;;;;;;2.70;1.48;;;21.50;48.30;;;;;;5414933;26;20015;-85
2024/04/11 10:27:11;;;;;;;5.88;2.13;;;21.30;47.00;;;;;;5419059;26;20013;-86
2024/04/11 10:29:45;;;;;;;6.65;2.08;;;21.10;46.90;;;;;;5452153;26;20003;-84
2024/04/11 10:32:21;;;;;;;5.30;1.60;;;20.90;46.50;;;;;;5453587;26;20018;-86
2024/04/11 10:34:55;;;;;;;7.20;2.40;;;20.60;46.90;;;;;;5456023;26;20010;-83
2024/04/11 10:37:26;;;;;;;4.85;2.03;;;20.20;48.10;;;;;;5458791;26;20023;-86
2024/04/11 10:39:57;;;;;;;5.57;2.08;;;19.90;49.00;;;;;;5460944;26;20009;-84
2024/04/11 10:42:36;;;;;;;2.38;1.80;;;19.70;49.90;;;;;;5461780;26;20002;-85
2024/04/11 10:45:17;;;;;;;5.05;2.17;;;19.60;50.30;;;;;;5456019;26;20007;-84
2024/04/11 10:47:44;;;;;;;5.65;2.78;;;19.60;50.50;;;;;;5454931;26;19998;-85
2024/04/11 10:50:13;;;;;;;4.13;2.13;;;19.70;50.70;;;;;;5454370;26;19999;-85
2024/04/11 10:52:47;;;;;;;2.75;1.70;;;19.70;50.80;;;;;;5454995;26;20006;-83
2024/04/11 10:55:28;;;;;;;3.05;1.95;;;19.60;51.20;;;;;;5455198;26;20361;-84
2024/04/11 11:06:26;;;;;;;9.63;3.33;;;19.50;52.20;;;;;;5407065;26;20006;-85
2024/04/11 11:08:55;;;;;;;7.20;2.25;;;19.90;52.20;;;;;;5457745;26;20014;-83
2024/04/11 11:11:25;;;;;;;5.13;2.15;;;20.00;51.50;;;;;;5461338;26;19995;-84
2024/04/11 11:13:54;;;;;;;5.22;2.60;;;20.00;51.30;;;;;;5472657;26;20002;-83
2024/04/11 11:16:21;;;;;;;5.95;2.55;;;19.90;51.20;;;;;;5466583;26;20003;-84
2024/04/11 11:18:53;;;;;;;4.20;2.77;;;19.70;52.00;;;;;;5421545;26;20343;-85
2024/04/11 11:21:22;;;;;;;4.40;2.40;;;19.70;52.40;;;;;;5452941;26;20010;-84
2024/04/11 11:23:59;;;;;;;8.02;2.63;;;19.60;52.30;;;;;;5453406;26;20053;-85
2024/04/11 11:26:35;;;;;;;11.00;3.33;;;19.60;52.50;;;;;;5456176;26;20365;-83
2024/04/11 11:29:07;;;;;;;4.18;2.25;;;19.60;52.00;;;;;;5453820;26;20029;-85
2024/04/11 11:31:36;;;;;;;2.63;1.85;;;19.60;52.20;;;;;;5456697;26;19998;-85
2024/04/11 11:34:09;;;;;;;5.95;2.28;;;19.40;51.30;;;;;;5455247;26;20011;-82
2024/04/11 11:36:47;;;;;;;6.53;1.83;;;19.30;51.70;;;;;;5447452;26;20006;-85
2024/04/11 11:39:25;;;;;;;5.25;1.75;;;19.30;52.00;;;;;;5454147;26;20010;-85
2024/04/11 11:42:08;;;;;;;10.20;1.80;;;19.10;52.40;;;;;;5453781;26;20003;-84
2024/04/11 11:44:45;;;;;;;5.43;2.17;;;19.00;52.80;;;;;;5453787;26;20347;-85
2024/04/11 11:47:11;;;;;;;9.45;1.90;;;18.90;53.40;;;;;;5421777;26;20440;-86
2024/04/11 11:49:37;;;;;;;8.15;3.13;;;18.80;53.80;;;;;;5422175;26;19999;-85
2024/04/11 11:52:13;;;;;;;7.53;5.45;;;18.80;54.20;;;;;;5453020;26;20010;-85
2024/04/11 11:54:41;;;;;;;4.00;2.20;;;19.00;54.10;;;;;;5454085;26;20013;-84
2024/04/11 11:57:22;;;;;;;6.60;2.20;;;19.10;53.60;;;;;;5455092;26;19999;-83
2024/04/11 11:59:48;;;;;;;5.13;2.40;;;19.10;53.80;;;;;;5455872;26;20022;-83
2024/04/11 12:02:14;;;;;;;2.22;1.98;;;19.20;54.00;;;;;;5447014;26;20008;-84
2024/04/11 12:04:44;;;;;;;7.68;1.88;;;19.10;51.50;;;;;;5396941;26;20014;-85
2024/04/11 12:07:12;;;;;;;9.55;2.05;;;18.90;50.70;;;;;;5446887;26;20130;-84
2024/04/11 12:09:44;;;;;;;3.33;1.58;;;18.70;51.10;;;;;;5453141;26;20003;-82
2024/04/11 12:12:23;;;;;;;5.32;1.73;;;18.60;51.60;;;;;;5453649;26;20009;-85
2024/04/11 12:14:54;;;;;;;5.40;2.17;;;18.60;51.80;;;;;;5453097;26;20009;-84
2024/04/11 12:17:23;;;;;;;4.88;1.80;;;18.60;51.60;;;;;;5452693;26;19998;-84
2024/04/11 12:20:05;;;;;;;5.63;1.80;;;18.60;51.90;;;;;;5416797;26;20348;-81
2024/04/11 12:22:33;;;;;;;4.32;1.58;;;18.60;51.20;;;;;;5440808;26;19999;-83
2024/04/11 12:25:01;;;;;;;2.65;1.42;;;18.50;49.20;;;;;;5453587;26;20010;-82
2024/04/11 12:27:28;;;;;;;7.38;1.88;;;18.40;49.50;;;;;;5421617;26;20463;-84
2024/04/11 12:30:01;;;;;;;4.88;2.00;;;18.30;49.60;;;;;;5452779;26;20462;-82
2024/04/11 12:32:27;;;;;;;4.03;1.80;;;18.40;50.30;;;;;;5452347;26;20026;-84
2024/04/11 12:34:56;;;;;;;5.88;1.90;;;18.40;51.10;;;;;;5420312;26;20003;-84
2024/04/11 12:37:25;;;;;;;4.47;1.77;;;18.40;50.40;;;;;;5414745;26;20035;-82
2024/04/11 12:39:55;;;;;;;6.75;2.25;;;18.50;50.50;;;;;;5411647;26;20003;-84
2024/04/11 12:42:22;;;;;;;7.78;2.08;;;18.40;50.50;;;;;;5452404;26;20401;-84
2024/04/11 12:44:52;;;;;;;3.58;2.15;;;18.40;50.70;;;;;;5452951;26;20009;-85
2024/04/11 12:47:23;;;;;;;5.47;2.00;;;18.40;51.00;;;;;;5453067;26;20405;-85
2024/04/11 12:49:50;;;;;;;10.30;2.63;;;18.50;51.20;;;;;;5453402;26;20011;-85
2024/04/11 12:52:23;;;;;;;5.07;1.95;;;18.50;51.10;;;;;;5452306;26;20344;-84
2024/04/11 12:55:00;;;;;;;5.80;2.70;;;18.40;51.00;;;;;;5451985;26;20462;-83
2024/04/11 12:57:28;;;;;;;;;;;18.30;51.70;;;;;;5453520;26;20007;-83
2024/04/11 13:00:07;;;;;;;9.10;2.28;;;18.30;52.00;;;;;;5452349;26;19952;-84
2024/04/11 13:02:34;;;;;;;6.28;1.80;;;18.30;52.90;;;;;;5440967;26;20031;-84
2024/04/11 13:05:13;;;;;;;4.22;2.20;;;18.20;53.80;;;;;;5437537;26;20026;-82
2024/04/11 13:07:42;;;;;;;4.78;2.08;;;17.90;54.40;;;;;;5452301;26;20173;-84
2024/04/11 13:10:08;;;;;;;6.80;1.88;;;17.70;54.60;;;;;;5452025;26;20002;-85